Slave Lake, Canada
Current Conditions -  °F | °C
As of 2:00 AM on Monday 24 Nov 2014 (Local Time) from CYZH Reporting Station
Light Snow Light Snow  
Wind Chill: 12°   Ceiling: 1200
Heat Index: 23°   Visibility: 9mi
Dew Point: 19°   Wind: 10mph
Humidity: 86%   Direction: 320°NW
Pressure: 29.85"   Gusts: 20mph
Location:  55.27°N, 114.77°W
Report Text: CYZH 240900Z AUTO 32009G17KT 9SM -SN OVC012 M05/M07 A2985 RMK SLP148
Loading
Personal Weather Stations






























Interactive Weather Map New forecast layout! Learn more

10-Day Weather Forecast

Advertisements
Track Severe Weather on mobile